sensor_id;sensor_type;location;lat;lon;timestamp;pressure;altitude;pressure_sealevel;temperature;humidity
69402;BME280;56589;51.992;5.924;2023-04-22T00:00:30;100323.66;;;8.20;82.02
69402;BME280;56589;51.992;5.924;2023-04-22T00:02:57;100321.53;;;8.12;81.88
69402;BME280;56589;51.992;5.924;2023-04-22T00:05:23;100325.44;;;8.05;82.43
69402;BME280;56589;51.992;5.924;2023-04-22T00:07:49;100326.75;;;7.98;82.15
69402;BME280;56589;51.992;5.924;2023-04-22T00:10:15;100321.13;;;7.89;82.75
69402;BME280;56589;51.992;5.924;2023-04-22T00:12:41;100322.91;;;7.89;82.98
69402;BME280;56589;51.992;5.924;2023-04-22T00:15:08;100323.84;;;7.88;82.82
69402;BME280;56589;51.992;5.924;2023-04-22T00:17:37;100320.59;;;7.84;82.89
69402;BME280;56589;51.992;5.924;2023-04-22T00:20:05;100314.69;;;7.81;83.11
69402;BME280;56589;51.992;5.924;2023-04-22T00:22:32;100312.09;;;7.81;83.07
69402;BME280;56589;51.992;5.924;2023-04-22T00:24:58;100310.31;;;7.81;83.18
69402;BME280;56589;51.992;5.924;2023-04-22T00:27:23;100313.03;;;7.80;83.28
69402;BME280;56589;51.992;5.924;2023-04-22T00:29:49;100306.28;;;7.76;83.21
69402;BME280;56589;51.992;5.924;2023-04-22T00:32:15;100307.13;;;7.76;83.51
69402;BME280;56589;51.992;5.924;2023-04-22T00:34:43;100304.44;;;7.78;83.45
69402;BME280;56589;51.992;5.924;2023-04-22T00:37:09;100308.81;;;7.77;83.16
69402;BME280;56589;51.992;5.924;2023-04-22T00:39:35;100314.22;;;7.74;83.36
69402;BME280;56589;51.992;5.924;2023-04-22T00:42:01;100310.03;;;7.72;83.23
69402;BME280;56589;51.992;5.924;2023-04-22T00:44:28;100307.59;;;7.69;83.53
69402;BME280;56589;51.992;5.924;2023-04-22T00:46:54;100298.25;;;7.65;83.61
69402;BME280;56589;51.992;5.924;2023-04-22T00:49:21;100303.47;;;7.65;83.71
69402;BME280;56589;51.992;5.924;2023-04-22T00:51:52;100300.03;;;7.64;83.25
69402;BME280;56589;51.992;5.924;2023-04-22T00:54:18;100296.47;;;7.65;83.33
69402;BME280;56589;51.992;5.924;2023-04-22T00:56:44;100292.94;;;7.66;83.35
69402;BME280;56589;51.992;5.924;2023-04-22T00:59:10;100293.03;;;7.65;83.22
69402;BME280;56589;51.992;5.924;2023-04-22T01:01:37;100296.41;;;7.67;83.44
69402;BME280;56589;51.992;5.924;2023-04-22T01:04:03;100295.72;;;7.63;83.17
69402;BME280;56589;51.992;5.924;2023-04-22T01:06:29;100303.84;;;7.58;83.33
69402;BME280;56589;51.992;5.924;2023-04-22T01:08:58;100302.25;;;7.56;83.17
69402;BME280;56589;51.992;5.924;2023-04-22T01:11:24;100304.03;;;7.55;83.25
69402;BME280;56589;51.992;5.924;2023-04-22T01:13:50;100301.59;;;7.52;83.59
69402;BME280;56589;51.992;5.924;2023-04-22T01:16:17;100297.28;;;7.51;83.45
69402;BME280;56589;51.992;5.924;2023-04-22T01:18:43;100295.63;;;7.50;83.39
69402;BME280;56589;51.992;5.924;2023-04-22T01:21:09;100284.34;;;7.50;83.80
69402;BME280;56589;51.992;5.924;2023-04-22T01:23:38;100284.44;;;7.48;83.62
69402;BME280;56589;51.992;5.924;2023-04-22T01:26:04;100288.81;;;7.48;83.53
69402;BME280;56589;51.992;5.924;2023-04-22T01:28:30;100289.81;;;7.45;83.35
69402;BME280;56589;51.992;5.924;2023-04-22T01:30:57;100284.78;;;7.42;83.60
69402;BME280;56589;51.992;5.924;2023-04-22T01:33:23;100281.59;;;7.37;83.33
69402;BME280;56589;51.992;5.924;2023-04-22T01:35:49;100286.97;;;7.34;83.74
69402;BME280;56589;51.992;5.924;2023-04-22T01:38:16;100282.78;;;7.31;84.14
69402;BME280;56589;51.992;5.924;2023-04-22T01:40:44;100281.19;;;7.29;84.13
69402;BME280;56589;51.992;5.924;2023-04-22T01:43:10;100283.72;;;7.30;84.58
69402;BME280;56589;51.992;5.924;2023-04-22T01:45:36;100282.69;;;7.33;84.54
69402;BME280;56589;51.992;5.924;2023-04-22T01:48:02;100281.72;;;7.36;84.57
69402;BME280;56589;51.992;5.924;2023-04-22T01:50:29;100277.22;;;7.38;84.51
69402;BME280;56589;51.992;5.924;2023-04-22T01:52:55;100278.91;;;7.39;84.63
69402;BME280;56589;51.992;5.924;2023-04-22T01:55:21;100281.41;;;7.40;84.87
69402;BME280;56589;51.992;5.924;2023-04-22T01:57:50;100279.56;;;7.42;84.55
69402;BME280;56589;51.992;5.924;2023-04-22T02:00:16;100278.53;;;7.45;84.77
69402;BME280;56589;51.992;5.924;2023-04-22T02:02:43;100276.03;;;7.43;84.48
69402;BME280;56589;51.992;5.924;2023-04-22T02:05:09;100282.09;;;7.44;84.54
69402;BME280;56589;51.992;5.924;2023-04-22T02:07:35;100277.69;;;7.44;84.84
69402;BME280;56589;51.992;5.924;2023-04-22T02:10:01;100284.50;;;7.47;84.48
69402;BME280;56589;51.992;5.924;2023-04-22T02:12:27;100281.72;;;7.50;85.20
69402;BME280;56589;51.992;5.924;2023-04-22T02:14:55;100271.00;;;7.54;84.54
69402;BME280;56589;51.992;5.924;2023-04-22T02:17:21;100278.75;;;7.56;84.90
69402;BME280;56589;51.992;5.924;2023-04-22T02:19:47;100278.66;;;7.57;84.73
69402;BME280;56589;51.992;5.924;2023-04-22T02:22:12;100278.66;;;7.57;85.04
69402;BME280;56589;51.992;5.924;2023-04-22T02:24:38;100276.81;;;7.59;85.14
69402;BME280;56589;51.992;5.924;2023-04-22T02:27:04;100265.41;;;7.60;84.58
69402;BME280;56589;51.992;5.924;2023-04-22T02:29:30;100263.75;;;7.59;84.60
69402;BME280;56589;51.992;5.924;2023-04-22T02:31:58;100262.81;;;7.60;84.74
69402;BME280;56589;51.992;5.924;2023-04-22T02:34:25;100266.41;;;7.58;85.00
69402;BME280;56589;51.992;5.924;2023-04-22T02:36:51;100268.97;;;7.59;85.30
69402;BME280;56589;51.992;5.924;2023-04-22T02:39:17;100270.53;;;7.62;85.11
69402;BME280;56589;51.992;5.924;2023-04-22T02:41:43;100272.03;;;7.66;85.26
69402;BME280;56589;51.992;5.924;2023-04-22T02:44:08;100265.88;;;7.67;85.36
69402;BME280;56589;51.992;5.924;2023-04-22T02:46:34;100260.66;;;7.67;85.14
69402;BME280;56589;51.992;5.924;2023-04-22T02:49:02;100260.66;;;7.67;85.69
69402;BME280;56589;51.992;5.924;2023-04-22T02:51:29;100254.59;;;7.67;85.91
69402;BME280;56589;51.992;5.924;2023-04-22T02:53:55;100250.94;;;7.69;85.61
69402;BME280;56589;51.992;5.924;2023-04-22T02:56:21;100244.78;;;7.70;86.04
69402;BME280;56589;51.992;5.924;2023-04-22T02:58:47;100243.84;;;7.71;86.08
69402;BME280;56589;51.992;5.924;2023-04-22T03:01:13;100242.00;;;7.73;85.88
69402;BME280;56589;51.992;5.924;2023-04-22T03:03:39;100242.72;;;7.75;85.64
69402;BME280;56589;51.992;5.924;2023-04-22T03:06:07;100247.78;;;7.78;86.09
69402;BME280;56589;51.992;5.924;2023-04-22T03:08:33;100239.00;;;7.79;85.57
69402;BME280;56589;51.992;5.924;2023-04-22T03:10:58;100243.19;;;7.82;86.04
69402;BME280;56589;51.992;5.924;2023-04-22T03:13:24;100243.03;;;7.85;85.56
69402;BME280;56589;51.992;5.924;2023-04-22T03:15:50;100238.44;;;7.88;85.84
69402;BME280;56589;51.992;5.924;2023-04-22T03:18:16;100242.72;;;7.89;85.63
69402;BME280;56589;51.992;5.924;2023-04-22T03:20:42;100237.50;;;7.89;85.33
69402;BME280;56589;51.992;5.924;2023-04-22T03:23:10;100230.41;;;7.92;85.59
69402;BME280;56589;51.992;5.924;2023-04-22T03:25:36;100232.19;;;7.91;85.64
69402;BME280;56589;51.992;5.924;2023-04-22T03:28:02;100230.41;;;7.92;85.57
69402;BME280;56589;51.992;5.924;2023-04-22T03:30:28;100232.19;;;7.91;85.42
69402;BME280;56589;51.992;5.924;2023-04-22T03:32:54;100227.81;;;7.92;85.35
69402;BME280;56589;51.992;5.924;2023-04-22T03:35:20;100232.00;;;7.94;85.33
69402;BME280;56589;51.992;5.924;2023-04-22T03:37:46;100225.09;;;7.93;85.29
69402;BME280;56589;51.992;5.924;2023-04-22T03:40:14;100228.63;;;7.92;85.46
69402;BME280;56589;51.992;5.924;2023-04-22T03:42:40;100226.03;;;7.92;85.31
69402;BME280;56589;51.992;5.924;2023-04-22T03:45:06;100221.72;;;7.91;85.24
69402;BME280;56589;51.992;5.924;2023-04-22T03:47:33;100219.13;;;7.91;85.53
69402;BME280;56589;51.992;5.924;2023-04-22T03:49:58;100213.97;;;7.89;85.51
69402;BME280;56589;51.992;5.924;2023-04-22T03:52:24;100208.75;;;7.89;85.58
69402;BME280;56589;51.992;5.924;2023-04-22T03:54:50;100206.22;;;7.88;85.25
69402;BME280;56589;51.992;5.924;2023-04-22T03:57:20;100201.94;;;7.87;85.41
69402;BME280;56589;51.992;5.924;2023-04-22T03:59:46;100207.16;;;7.87;85.53
69402;BME280;56589;51.992;5.924;2023-04-22T04:02:12;100202.03;;;7.85;85.50
69402;BME280;56589;51.992;5.924;2023-04-22T04:04:38;100200.25;;;7.86;85.24
69402;BME280;56589;51.992;5.924;2023-04-22T04:07:03;100205.38;;;7.87;85.38
69402;BME280;56589;51.992;5.924;2023-04-22T04:09:32;100205.28;;;7.89;85.49
69402;BME280;56589;51.992;5.924;2023-04-22T04:11:57;100203.44;;;7.91;85.32
69402;BME280;56589;51.992;5.924;2023-04-22T04:14:26;100200.81;;;7.91;85.38
69402;BME280;56589;51.992;5.924;2023-04-22T04:16:52;100196.53;;;7.90;85.36
69402;BME280;56589;51.992;5.924;2023-04-22T04:19:18;100200.16;;;7.87;85.31
69402;BME280;56589;51.992;5.924;2023-04-22T04:21:43;100188.88;;;7.87;85.54
69402;BME280;56589;51.992;5.924;2023-04-22T04:24:09;100188.03;;;7.86;85.63
69402;BME280;56589;51.992;5.924;2023-04-22T04:26:35;100181.13;;;7.85;85.94
69402;BME280;56589;51.992;5.924;2023-04-22T04:29:01;100191.47;;;7.87;85.66
69402;BME280;56589;51.992;5.924;2023-04-22T04:31:29;100182.72;;;7.88;85.62
69402;BME280;56589;51.992;5.924;2023-04-22T04:33:55;100182.59;;;7.89;85.33
69402;BME280;56589;51.992;5.924;2023-04-22T04:36:21;100181.69;;;7.91;85.43
69402;BME280;56589;51.992;5.924;2023-04-22T04:38:47;100184.19;;;7.92;85.52
69402;BME280;56589;51.992;5.924;2023-04-22T04:41:12;100178.97;;;7.92;85.95
69402;BME280;56589;51.992;5.924;2023-04-22T04:43:38;100177.09;;;7.94;85.57
69402;BME280;56589;51.992;5.924;2023-04-22T04:46:04;100173.47;;;7.97;85.75
69402;BME280;56589;51.992;5.924;2023-04-22T04:48:32;100177.66;;;7.99;85.99
69402;BME280;56589;51.992;5.924;2023-04-22T04:50:58;100182.69;;;8.02;85.93
69402;BME280;56589;51.992;5.924;2023-04-22T04:53:24;100183.44;;;8.04;85.41
69402;BME280;56589;51.992;5.924;2023-04-22T04:55:49;100171.94;;;8.07;85.55
69402;BME280;56589;51.992;5.924;2023-04-22T04:58:15;100178.75;;;8.09;86.01
69402;BME280;56589;51.992;5.924;2023-04-22T05:00:41;100182.00;;;8.13;85.53
69402;BME280;56589;51.992;5.924;2023-04-22T05:03:07;100177.59;;;8.13;85.35
69402;BME280;56589;51.992;5.924;2023-04-22T05:05:35;100175.94;;;8.12;85.37
69402;BME280;56589;51.992;5.924;2023-04-22T05:08:01;100180.22;;;8.13;85.97
69402;BME280;56589;51.992;5.924;2023-04-22T05:10:27;100174.81;;;8.17;85.54
69402;BME280;56589;51.992;5.924;2023-04-22T05:12:53;100178.16;;;8.19;85.75
69402;BME280;56589;51.992;5.924;2023-04-22T05:15:18;100178.88;;;8.21;85.92
69402;BME280;56589;51.992;5.924;2023-04-22T05:17:44;100187.59;;;8.21;85.78
69402;BME280;56589;51.992;5.924;2023-04-22T05:20:10;100181.50;;;8.21;85.54
69402;BME280;56589;51.992;5.924;2023-04-22T05:22:39;100191.69;;;8.25;85.98
69402;BME280;56589;51.992;5.924;2023-04-22T05:25:05;100191.56;;;8.27;85.85
69402;BME280;56589;51.992;5.924;2023-04-22T05:27:32;100189.72;;;8.29;85.83
69402;BME280;56589;51.992;5.924;2023-04-22T05:29:58;100189.50;;;8.32;85.91
69402;BME280;56589;51.992;5.924;2023-04-22T05:32:24;100178.09;;;8.33;85.79
69402;BME280;56589;51.992;5.924;2023-04-22T05:34:50;100184.94;;;8.35;85.86
69402;BME280;56589;51.992;5.924;2023-04-22T05:37:15;100184.00;;;8.36;85.84
69402;BME280;56589;51.992;5.924;2023-04-22T05:39:44;100189.75;;;8.41;85.99
69402;BME280;56589;51.992;5.924;2023-04-22T05:42:10;100191.25;;;8.46;85.93
69402;BME280;56589;51.992;5.924;2023-04-22T05:44:35;100194.59;;;8.48;85.58
69402;BME280;56589;51.992;5.924;2023-04-22T05:47:01;100189.16;;;8.51;85.68
69402;BME280;56589;51.992;5.924;2023-04-22T05:49:27;100194.81;;;8.57;85.75
69402;BME280;56589;51.992;5.924;2023-04-22T05:51:53;100184.06;;;8.62;85.84
69402;BME280;56589;51.992;5.924;2023-04-22T05:54:19;100178.53;;;8.66;85.94
69402;BME280;56589;51.992;5.924;2023-04-22T05:56:47;100180.94;;;8.69;85.83
69402;BME280;56589;51.992;5.924;2023-04-22T05:59:13;100171.22;;;8.72;85.50
69402;BME280;56589;51.992;5.924;2023-04-22T06:01:39;100163.91;;;8.77;85.79
69402;BME280;56589;51.992;5.924;2023-04-22T06:04:04;100178.38;;;8.82;85.68
69402;BME280;56589;51.992;5.924;2023-04-22T06:06:30;100171.97;;;8.86;85.82
69402;BME280;56589;51.992;5.924;2023-04-22T06:08:56;100168.09;;;8.92;85.45
69402;BME280;56589;51.992;5.924;2023-04-22T06:11:22;100174.81;;;8.96;85.46
69402;BME280;56589;51.992;5.924;2023-04-22T06:13:51;100165.72;;;9.02;85.72
69402;BME280;56589;51.992;5.924;2023-04-22T06:16:16;100169.72;;;9.07;85.63
69402;BME280;56589;51.992;5.924;2023-04-22T06:18:42;100181.56;;;9.13;85.56
69402;BME280;56589;51.992;5.924;2023-04-22T06:21:08;100181.13;;;9.19;85.37
69402;BME280;56589;51.992;5.924;2023-04-22T06:23:34;100184.22;;;9.26;85.56
69402;BME280;56589;51.992;5.924;2023-04-22T06:25:59;100182.97;;;9.31;85.07
69402;BME280;56589;51.992;5.924;2023-04-22T06:28:25;100186.91;;;9.37;85.48
69402;BME280;56589;51.992;5.924;2023-04-22T06:30:54;100190.81;;;9.44;84.94
69402;BME280;56589;51.992;5.924;2023-04-22T06:33:20;100184.19;;;9.51;85.25
69402;BME280;56589;51.992;5.924;2023-04-22T06:35:45;100184.19;;;9.64;85.30
69402;BME280;56589;51.992;5.924;2023-04-22T06:38:11;100184.16;;;9.76;85.47
69402;BME280;56589;51.992;5.924;2023-04-22T06:40:37;100188.41;;;9.90;84.65
69402;BME280;56589;51.992;5.924;2023-04-22T06:43:03;100190.06;;;10.04;85.44
69402;BME280;56589;51.992;5.924;2023-04-22T06:45:29;100181.63;;;10.24;85.06
69402;BME280;56589;51.992;5.924;2023-04-22T06:47:57;100162.47;;;10.70;86.63
69402;BME280;56589;51.992;5.924;2023-04-22T06:50:23;100163.75;;;11.46;87.12
69402;BME280;56589;51.992;5.924;2023-04-22T06:52:49;100160.41;;;12.32;86.82
69402;BME280;56589;51.992;5.924;2023-04-22T06:55:14;100161.72;;;13.12;84.61
69402;BME280;56589;51.992;5.924;2023-04-22T06:57:40;100163.28;;;13.75;81.77
69402;BME280;56589;51.992;5.924;2023-04-22T07:00:07;100168.19;;;13.99;79.35
69402;BME280;56589;51.992;5.924;2023-04-22T07:02:34;100165.81;;;13.96;77.65
69402;BME280;56589;51.992;5.924;2023-04-22T07:05:02;100158.19;;;13.93;76.80
69402;BME280;56589;51.992;5.924;2023-04-22T07:07:28;100152.63;;;13.87;75.48
69402;BME280;56589;51.992;5.924;2023-04-22T07:09:54;100157.13;;;13.65;74.30
69402;BME280;56589;51.992;5.924;2023-04-22T07:12:20;100160.31;;;13.38;75.15
69402;BME280;56589;51.992;5.924;2023-04-22T07:14:47;100157.09;;;13.35;75.25
69402;BME280;56589;51.992;5.924;2023-04-22T07:17:13;100154.06;;;13.39;74.87
69402;BME280;56589;51.992;5.924;2023-04-22T07:19:39;100154.22;;;13.38;74.76
69402;BME280;56589;51.992;5.924;2023-04-22T07:22:07;100148.41;;;13.44;74.46
69402;BME280;56589;51.992;5.924;2023-04-22T07:24:33;100146.16;;;13.39;73.56
69402;BME280;56589;51.992;5.924;2023-04-22T07:26:59;100141.84;;;13.38;73.83
69402;BME280;56589;51.992;5.924;2023-04-22T07:29:25;100147.31;;;13.46;73.59
69402;BME280;56589;51.992;5.924;2023-04-22T07:31:50;100142.63;;;13.50;73.28
69402;BME280;56589;51.992;5.924;2023-04-22T07:34:16;100131.28;;;13.59;73.64
69402;BME280;56589;51.992;5.924;2023-04-22T07:36:43;100136.41;;;13.61;73.02
69402;BME280;56589;51.992;5.924;2023-04-22T07:39:11;100129.66;;;13.68;73.58
69402;BME280;56589;51.992;5.924;2023-04-22T07:41:37;100128.16;;;13.85;73.53
69402;BME280;56589;51.992;5.924;2023-04-22T07:44:03;100132.63;;;13.94;72.95
69402;BME280;56589;51.992;5.924;2023-04-22T07:46:28;100137.50;;;13.98;72.16
69402;BME280;56589;51.992;5.924;2023-04-22T07:48:54;100135.41;;;14.02;71.56
69402;BME280;56589;51.992;5.924;2023-04-22T07:51:20;100132.38;;;14.07;71.73
69402;BME280;56589;51.992;5.924;2023-04-22T07:53:46;100138.63;;;14.15;71.45
69402;BME280;56589;51.992;5.924;2023-04-22T07:56:14;100137.38;;;14.19;71.38
69402;BME280;56589;51.992;5.924;2023-04-22T07:58:40;100142.69;;;14.29;71.88
69402;BME280;56589;51.992;5.924;2023-04-22T08:01:05;100147.69;;;14.42;71.42
69402;BME280;56589;51.992;5.924;2023-04-22T08:03:31;100144.94;;;14.53;71.22
69402;BME280;56589;51.992;5.924;2023-04-22T08:05:57;100143.25;;;14.62;71.33
69402;BME280;56589;51.992;5.924;2023-04-22T08:08:23;100147.69;;;14.71;70.66
69402;BME280;56589;51.992;5.924;2023-04-22T08:10:49;100142.97;;;14.74;70.38
69402;BME280;56589;51.992;5.924;2023-04-22T08:13:17;100146.56;;;14.83;70.77
69402;BME280;56589;51.992;5.924;2023-04-22T08:15:43;100148.09;;;14.95;70.01
69402;BME280;56589;51.992;5.924;2023-04-22T08:18:09;100152.38;;;15.06;69.61
69402;BME280;56589;51.992;5.924;2023-04-22T08:20:34;100156.69;;;15.17;70.04
69402;BME280;56589;51.992;5.924;2023-04-22T08:23:00;100154.00;;;15.26;70.18
69402;BME280;56589;51.992;5.924;2023-04-22T08:25:26;100149.63;;;15.45;69.90
69402;BME280;56589;51.992;5.924;2023-04-22T08:27:52;100132.25;;;15.70;69.69
69402;BME280;56589;51.992;5.924;2023-04-22T08:30:21;100122.81;;;15.95;68.85
69402;BME280;56589;51.992;5.924;2023-04-22T08:32:47;100121.91;;;16.04;67.95
69402;BME280;56589;51.992;5.924;2023-04-22T08:35:12;100113.75;;;16.15;68.14
69402;BME280;56589;51.992;5.924;2023-04-22T08:37:39;100114.88;;;16.30;67.80
69402;BME280;56589;51.992;5.924;2023-04-22T08:40:07;100115.47;;;16.42;66.72
69402;BME280;56589;51.992;5.924;2023-04-22T08:42:33;100099.56;;;16.42;66.54
69402;BME280;56589;51.992;5.924;2023-04-22T08:45:02;100098.97;;;16.48;65.93
69402;BME280;56589;51.992;5.924;2023-04-22T08:47:32;100103.41;;;16.65;66.02
69402;BME280;56589;51.992;5.924;2023-04-22T08:50:01;100102.06;;;16.79;65.23
69402;BME280;56589;51.992;5.924;2023-04-22T08:52:29;100092.28;;;16.80;64.87
69402;BME280;56589;51.992;5.924;2023-04-22T08:54:55;100097.56;;;16.80;64.07
69402;BME280;56589;51.992;5.924;2023-04-22T08:57:21;100093.25;;;16.79;64.28
69402;BME280;56589;51.992;5.924;2023-04-22T08:59:48;100098.44;;;16.80;63.90
69402;BME280;56589;51.992;5.924;2023-04-22T09:02:18;100094.31;;;16.86;64.81
69402;BME280;56589;51.992;5.924;2023-04-22T09:04:49;100091.09;;;17.00;64.25
69402;BME280;56589;51.992;5.924;2023-04-22T09:07:22;100094.81;;;17.15;64.16
69402;BME280;56589;51.992;5.924;2023-04-22T09:09:49;100094.09;;;17.31;64.19
69402;BME280;56589;51.992;5.924;2023-04-22T09:12:15;100099.13;;;17.42;64.05
69402;BME280;56589;51.992;5.924;2023-04-22T09:14:41;100098.97;;;17.52;64.15
69402;BME280;56589;51.992;5.924;2023-04-22T09:17:08;100092.09;;;17.67;63.58
69402;BME280;56589;51.992;5.924;2023-04-22T09:19:33;100104.09;;;17.79;63.25
69402;BME280;56589;51.992;5.924;2023-04-22T09:22:02;100089.34;;;17.85;62.60
69402;BME280;56589;51.992;5.924;2023-04-22T09:24:29;100077.41;;;17.97;62.73
69402;BME280;56589;51.992;5.924;2023-04-22T09:26:55;100069.44;;;18.14;62.01
69402;BME280;56589;51.992;5.924;2023-04-22T09:29:20;100067.81;;;18.29;61.44
69402;BME280;56589;51.992;5.924;2023-04-22T09:31:49;100072.13;;;18.38;61.34
69402;BME280;56589;51.992;5.924;2023-04-22T09:34:15;100060.84;;;18.52;62.21
69402;BME280;56589;51.992;5.924;2023-04-22T09:36:42;100062.81;;;18.75;61.27
69402;BME280;56589;51.992;5.924;2023-04-22T09:39:11;100062.63;;;18.93;61.02
69402;BME280;56589;51.992;5.924;2023-04-22T09:41:38;100055.88;;;19.21;60.79
69402;BME280;56589;51.992;5.924;2023-04-22T09:44:10;100057.41;;;19.63;59.37
69402;BME280;56589;51.992;5.924;2023-04-22T09:46:41;100052.19;;;19.92;59.31
69402;BME280;56589;51.992;5.924;2023-04-22T09:49:08;100061.59;;;20.34;58.68
69402;BME280;56589;51.992;5.924;2023-04-22T09:51:39;100054.16;;;20.67;57.19
69402;BME280;56589;51.992;5.924;2023-04-22T09:54:06;100054.34;;;20.81;55.90
69402;BME280;56589;51.992;5.924;2023-04-22T09:56:45;100052.06;;;20.92;53.38
69402;BME280;56589;51.992;5.924;2023-04-22T09:59:13;100063.38;;;20.94;54.91
69402;BME280;56589;51.992;5.924;2023-04-22T10:01:43;100062.41;;;21.10;54.59
69402;BME280;56589;51.992;5.924;2023-04-22T10:04:09;100055.38;;;21.09;53.78
69402;BME280;56589;51.992;5.924;2023-04-22T10:06:35;100056.81;;;20.97;53.85
69402;BME280;56589;51.992;5.924;2023-04-22T10:09:02;100057.69;;;20.97;54.26
69402;BME280;56589;51.992;5.924;2023-04-22T10:11:29;100064.88;;;21.12;53.63
69402;BME280;56589;51.992;5.924;2023-04-22T10:13:58;100060.84;;;21.16;52.00
69402;BME280;56589;51.992;5.924;2023-04-22T10:16:24;100060.84;;;20.78;51.07
69402;BME280;56589;51.992;5.924;2023-04-22T10:18:54;100053.13;;;20.31;51.99
69402;BME280;56589;51.992;5.924;2023-04-22T10:21:23;100052.09;;;20.09;53.47
69402;BME280;56589;51.992;5.924;2023-04-22T10:23:50;100043.88;;;19.96;53.25
69402;BME280;56589;51.992;5.924;2023-04-22T10:26:46;100046.63;;;19.79;52.26
69402;BME280;56589;51.992;5.924;2023-04-22T10:29:18;100045.88;;;19.71;53.89
69402;BME280;56589;51.992;5.924;2023-04-22T10:31:51;100043.97;;;19.79;53.36
69402;BME280;56589;51.992;5.924;2023-04-22T10:34:19;100047.66;;;19.78;52.70
69402;BME280;56589;51.992;5.924;2023-04-22T10:36:56;100045.69;;;19.72;52.83
69402;BME280;56589;51.992;5.924;2023-04-22T10:39:25;100048.97;;;19.82;52.63
69402;BME280;56589;51.992;5.924;2023-04-22T10:41:55;100049.66;;;19.76;52.01
69402;BME280;56589;51.992;5.924;2023-04-22T10:44:27;100047.22;;;19.66;52.10
69402;BME280;56589;51.992;5.924;2023-04-22T10:46:58;100053.16;;;19.77;52.21
69402;BME280;56589;51.992;5.924;2023-04-22T10:49:25;100058.41;;;19.85;52.12
69402;BME280;56589;51.992;5.924;2023-04-22T10:51:55;100062.72;;;19.94;52.62
69402;BME280;56589;51.992;5.924;2023-04-22T10:57:38;100059.31;;;20.23;52.22
69402;BME280;56589;51.992;5.924;2023-04-22T11:00:41;100059.69;;;20.43;52.39
69402;BME280;56589;51.992;5.924;2023-04-22T11:03:11;100055.19;;;20.43;51.75
69402;BME280;56589;51.992;5.924;2023-04-22T11:05:39;100055.91;;;20.37;52.04
69402;BME280;56589;51.992;5.924;2023-04-22T11:08:08;100042.63;;;20.29;51.98
69402;BME280;56589;51.992;5.924;2023-04-22T11:10:39;100049.81;;;20.29;52.29
69402;BME280;56589;51.992;5.924;2023-04-22T11:13:07;100056.06;;;20.36;52.26
69402;BME280;56589;51.992;5.924;2023-04-22T11:15:36;100058.16;;;20.49;52.24
69402;BME280;56589;51.992;5.924;2023-04-22T11:18:07;100051.81;;;20.50;51.73
69402;BME280;56589;51.992;5.924;2023-04-22T11:20:34;100057.19;;;20.41;51.62
69402;BME280;56589;51.992;5.924;2023-04-22T11:23:01;100047.47;;;20.26;52.37
69402;BME280;56589;51.992;5.924;2023-04-22T11:25:27;100050.06;;;20.11;52.24
69402;BME280;56589;51.992;5.924;2023-04-22T11:27:53;100047.84;;;20.00;52.95
69402;BME280;56589;51.992;5.924;2023-04-22T11:30:20;100045.03;;;19.93;52.71
69402;BME280;56589;51.992;5.924;2023-04-22T11:32:48;100046.94;;;19.84;52.45
69402;BME280;56589;51.992;5.924;2023-04-22T11:35:20;100042.38;;;19.70;52.50
69402;BME280;56589;51.992;5.924;2023-04-22T11:37:49;100039.28;;;19.58;53.03
69402;BME280;56589;51.992;5.924;2023-04-22T11:40:18;100035.66;;;19.51;52.80
69402;BME280;56589;51.992;5.924;2023-04-22T11:42:45;100040.81;;;19.45;52.85
69402;BME280;56589;51.992;5.924;2023-04-22T11:45:11;100038.03;;;19.38;52.70
69402;BME280;56589;51.992;5.924;2023-04-22T11:47:36;100039.69;;;19.31;52.82
69402;BME280;56589;51.992;5.924;2023-04-22T11:50:04;100033.41;;;19.24;53.25
69402;BME280;56589;51.992;5.924;2023-04-22T11:52:47;100028.09;;;19.24;53.06
69402;BME280;56589;51.992;5.924;2023-04-22T11:55:16;100026.94;;;19.26;53.28
69402;BME280;56589;51.992;5.924;2023-04-22T11:57:44;100028.41;;;19.29;53.15
69402;BME280;56589;51.992;5.924;2023-04-22T12:00:15;100036.22;;;19.30;53.26
69402;BME280;56589;51.992;5.924;2023-04-22T12:02:41;100030.06;;;19.30;53.26
69402;BME280;56589;51.992;5.924;2023-04-22T12:05:09;100022.59;;;19.25;53.13
69402;BME280;56589;51.992;5.924;2023-04-22T12:07:35;100026.63;;;19.21;53.33
69402;BME280;56589;51.992;5.924;2023-04-22T12:10:05;100021.16;;;19.15;53.06
69402;BME280;56589;51.992;5.924;2023-04-22T12:12:32;100038.81;;;19.07;53.63
69402;BME280;56589;51.992;5.924;2023-04-22T12:15:06;100036.66;;;18.95;53.52
69402;BME280;56589;51.992;5.924;2023-04-22T12:17:33;100021.25;;;18.82;53.81
69402;BME280;56589;51.992;5.924;2023-04-22T12:19:59;100023.94;;;18.74;54.28
69402;BME280;56589;51.992;5.924;2023-04-22T12:22:25;100025.44;;;18.60;55.49
69402;BME280;56589;51.992;5.924;2023-04-22T12:24:51;100025.44;;;18.44;56.10
69402;BME280;56589;51.992;5.924;2023-04-22T12:27:20;100014.47;;;18.30;56.45
69402;BME280;56589;51.992;5.924;2023-04-22T12:29:53;100023.47;;;18.21;56.80
69402;BME280;56589;51.992;5.924;2023-04-22T12:32:20;100025.28;;;18.13;56.97
69402;BME280;56589;51.992;5.924;2023-04-22T12:34:47;100027.13;;;18.04;57.15
69402;BME280;56589;51.992;5.924;2023-04-22T12:37:13;100018.63;;;18.00;57.86
69402;BME280;56589;51.992;5.924;2023-04-22T12:39:39;100024.13;;;17.99;57.84
69402;BME280;56589;51.992;5.924;2023-04-22T12:42:05;100018.97;;;17.97;58.29
69402;BME280;56589;51.992;5.924;2023-04-22T12:44:34;100027.91;;;17.96;58.62
69402;BME280;56589;51.992;5.924;2023-04-22T12:47:00;100028.78;;;17.97;58.59
69402;BME280;56589;51.992;5.924;2023-04-22T12:49:26;100024.44;;;17.96;58.78
69402;BME280;56589;51.992;5.924;2023-04-22T12:51:51;100025.78;;;17.92;58.87
69402;BME280;56589;51.992;5.924;2023-04-22T12:54:18;100024.94;;;17.91;58.82
69402;BME280;56589;51.992;5.924;2023-04-22T12:56:44;100023.25;;;17.90;59.21